aviador You're here:

KGSO Decoded Metar

GREENSBORO in NC, USA
Report Time2017-08-18 17:54:00
UTC Time2017-08-18 18:18:06
Flight Rules vfr VFR
Wind250° at 06 kt
W.Decomp.*RWY 23: 5.3 kt HW 2.8 kt RCW
RWY 32: 2.8 kt HW 5.3 kt LCW
W.Rank250° ranks 8
Current wind is below 250° avg. (7.0)
Visibility9999 m
Phenomena:N/A
Clouds:Scattered 048 Hf
Scattered 070 Hf
Broken 250 Hf
Expected CloudBase > 4,000 ft AGL from Temp-Dew spread
Ceiling25,000 ft
Temp32°C (ISA +19)
Dew Point22°C (55% RH)
Heat Index35.6°C
QNH1013 hPa
Density Alt3,396 ft
Elevation902 ft
Report Wrong Elevation
Raw Report
METAR KGSO 181754Z 25006KT 10SM SCT048 SCT070 BKN250 32/22 A2991 RMK
AO2 SLP113 T03220217 10328 20250 56015=

Extra information for KGSO:More info

Metar Taf Metar & Taf Last 4 Metars F.Rules Stats Wind Profile Meteogram Temp Stats Airport Information Weather charts Add Link Nearby VenuesMetar ALERT Operation Metar Decoded Social comments

AIRNAV info for KGSO